Nære METAR værraporter

   
ENGM - Oslo
Oppdatert: 26-06-2019 11:50
Delvis skyet  
Delvis skyet  
   Vind: varierende 1.5 m/s
Vind: varierende 1.5 m/s
Temperatur: 17°C
Duggpunkt: 12°C
Luftfuktighet: 73%
Barometer: 1019 hPa
Skyer: Delvis skyet
Sikt: More than 10 km
Detaljer skyer: Delvis skyet 670.6 m,
Delvis skyet 2377.4 m
ENGM 260950Z VRB03KT 9999 SCT022 SCT078 17/12 Q1019 NOSIG
ENTO - Sandefjord
Oppdatert: 26-06-2019 11:50
Noen skyer  
Noen skyer  
   Vind: Nord 2.1 m/s
Vind: Nord 2.1 m/s
Temperatur: 18°C
Duggpunkt: 14°C
Luftfuktighet: 78%
Barometer: 1019 hPa
Skyer: Noen skyer
Sikt: More than 10 km
Detaljer skyer: Noen skyer 457.2 m
ENTO 260950Z 36004KT 280V070 9999 FEW015 18/14 Q1019 NOSIG
ENNO - Notodden
Oppdatert: 26-06-2019 11:50
For det meste Overskyet  
For det meste Overskyet  
   Vind: Stille
Vind: Stille
Temperatur: 19°C
Duggpunkt: 14°C
Luftfuktighet: 73%
Barometer: 1019 hPa
Skyer: For det meste Overskyet
Sikt: More than 10 km
Detaljer skyer: Noen skyer 701 m,
For det meste Overskyet 2743.2 m
ENNO 260950Z 00000KT 9999 FEW023 BKN090 19/14 Q1019
ENRY - Rygge
Oppdatert: 26-06-2019 11:50
Noen skyer  
Noen skyer  
   Vind: NNV 2.6 m/s
Vind: NNV 2.6 m/s
Temperatur: 18°C
Duggpunkt: 13°C
Luftfuktighet: 73%
Barometer: 1019 hPa
Skyer: Noen skyer
Sikt: More than 10 km
Detaljer skyer: Noen skyer 335.3 m
ENRY 260950Z 33005KT 300V020 9999 FEW011 18/13 Q1019 NOSIG
ENSN - Skien
Oppdatert: 09-11-2015 09:50
Oppdatert, se klokkeslett
Klart  
Klart  
   Vind: SSV 5.1 m/s<br />Gust to 5.1 m/s
Vind: SSV 5.1 m/s
Gust to 5.1 m/s
Temperatur: 7°C
Wind Chill: 4°C
Duggpunkt: 3°C
Luftfuktighet: 76%
Barometer: 1000 hPa
Sikt: More than 10 km
Detaljer skyer: Klart
ENSN 090850Z 20010G22KT 150V240 CAVOK 07/03 Q1000
ENFG - Fagernes
Oppdatert: 22-04-2018 10:50
Oppdatert, se klokkeslett
Klart  
Klart  
   Vind: Sør 3.6 m/s
Vind: Sør 3.6 m/s
Temperatur: 6°C
Wind Chill: 3°C
Duggpunkt: -3°C
Luftfuktighet: 53%
Barometer: 1014 hPa
Sikt: More than 10 km
Detaljer skyer: Klart
ENFG 220850Z 19007KT CAVOK 06/M03 Q1014

Script utviklet av  Saratoga-weather.org Tilpasset for tamplaten av  Weerstation Leuven

Du finner min vær info også på:

European Weather Network

Weather Underground

European Weather Network